createdAt,value
2018-08-18T00:02:56.654Z,21.50
2018-08-18T00:07:59.690Z,21.40
2018-08-18T00:13:02.686Z,21.40
2018-08-18T00:18:05.704Z,21.30
2018-08-18T00:23:08.725Z,21.20
2018-08-18T00:28:16.995Z,21.10
2018-08-18T00:33:20.031Z,21.10
2018-08-18T00:38:23.261Z,21.00
2018-08-18T00:43:26.366Z,21.00
2018-08-18T00:48:29.462Z,20.90
2018-08-18T00:53:32.462Z,20.90
2018-08-18T00:58:35.467Z,20.90
2018-08-18T01:03:42.758Z,21.00
2018-08-18T01:08:46.047Z,21.00
2018-08-18T01:13:49.397Z,21.10
2018-08-18T01:18:52.818Z,21.00
2018-08-18T01:23:56.022Z,20.90
2018-08-18T01:29:10.442Z,20.80
2018-08-18T01:34:13.499Z,20.80
2018-08-18T01:39:16.736Z,20.70
2018-08-18T01:44:20.909Z,20.70
2018-08-18T01:49:26.955Z,20.60
2018-08-18T01:54:30.202Z,20.60
2018-08-18T01:59:33.185Z,20.70
2018-08-18T02:04:36.173Z,20.60
2018-08-18T02:09:39.185Z,20.60
2018-08-18T02:14:42.218Z,20.40
2018-08-18T02:19:45.382Z,20.30
2018-08-18T02:24:48.393Z,20.30
2018-08-18T02:30:03.683Z,20.20
2018-08-18T02:35:06.990Z,20.10
2018-08-18T02:40:12.097Z,20.10
2018-08-18T02:45:15.926Z,20.10
2018-08-18T02:50:18.917Z,20.10
2018-08-18T02:55:22.026Z,20.10
2018-08-18T03:00:30.487Z,20.10
2018-08-18T03:05:33.469Z,20.20
2018-08-18T03:10:36.482Z,20.30
2018-08-18T03:15:55.257Z,20.20
2018-08-18T03:20:58.645Z,20.20
2018-08-18T03:26:01.637Z,20.20
2018-08-18T03:31:05.442Z,20.20
2018-08-18T03:36:23.484Z,20.20
2018-08-18T03:41:27.302Z,20.20
2018-08-18T03:46:30.443Z,20.20
2018-08-18T03:51:38.942Z,20.20
2018-08-18T03:56:42.205Z,20.20
2018-08-18T04:01:54.121Z,20.10
2018-08-18T04:06:58.096Z,20.10
2018-08-18T04:12:02.449Z,20.00
2018-08-18T04:17:12.678Z,20.00
2018-08-18T04:22:15.978Z,19.90
2018-08-18T04:27:35.026Z,19.90
2018-08-18T04:32:50.390Z,19.80
2018-08-18T04:37:54.321Z,19.80
2018-08-18T04:42:58.309Z,19.70
2018-08-18T04:48:01.305Z,19.80
2018-08-18T04:53:04.305Z,19.90
2018-08-18T04:58:07.303Z,19.90
2018-08-18T05:03:10.386Z,19.80
2018-08-18T05:08:13.398Z,19.90
2018-08-18T05:13:16.493Z,20.00
2018-08-18T05:18:19.542Z,20.10
2018-08-18T05:23:24.173Z,20.30
2018-08-18T05:28:27.202Z,20.40
2018-08-18T05:33:30.269Z,20.60
2018-08-18T05:38:33.266Z,20.70
2018-08-18T05:43:36.310Z,20.80
2018-08-18T05:48:39.345Z,21.00
2018-08-18T05:53:42.385Z,21.30
2018-08-18T05:58:53.685Z,21.60
2018-08-18T06:04:03.990Z,22.00
2018-08-18T06:09:08.889Z,22.30
2018-08-18T06:14:12.585Z,22.70
2018-08-18T06:19:15.590Z,23.00
2018-08-18T06:24:18.603Z,23.30
2018-08-18T06:29:21.666Z,23.60
2018-08-18T06:34:24.772Z,23.60
2018-08-18T06:39:32.407Z,23.80
2018-08-18T06:44:35.418Z,24.20
2018-08-18T06:49:38.425Z,24.60
2018-08-18T06:54:41.471Z,25.00
2018-08-18T06:59:44.581Z,25.60
2018-08-18T07:04:47.586Z,26.00
2018-08-18T07:09:50.601Z,26.00
2018-08-18T07:15:02.645Z,25.80
2018-08-18T07:20:05.746Z,25.80
2018-08-18T07:25:08.849Z,25.90
2018-08-18T07:30:11.934Z,25.80
2018-08-18T07:35:15.037Z,25.60
2018-08-18T07:40:18.169Z,25.30
2018-08-18T07:45:21.298Z,25.40
2018-08-18T07:50:24.368Z,25.40
2018-08-18T07:55:27.472Z,25.40
2018-08-18T08:00:32.121Z,25.40
2018-08-18T08:05:35.133Z,25.40
2018-08-18T08:10:38.137Z,25.30
2018-08-18T08:15:41.358Z,25.40
2018-08-18T08:20:44.387Z,25.50
2018-08-18T08:25:47.418Z,25.80
2018-08-18T08:30:50.466Z,26.40
2018-08-18T08:35:53.582Z,27.60
2018-08-18T08:40:56.757Z,28.90
2018-08-18T08:45:59.765Z,30.00
2018-08-18T08:51:02.790Z,31.10
2018-08-18T08:56:05.874Z,31.90
2018-08-18T09:01:08.858Z,32.40
2018-08-18T09:06:11.861Z,33.00
2018-08-18T09:11:14.993Z,33.40
2018-08-18T09:16:18.017Z,33.40
2018-08-18T09:21:21.046Z,33.80
2018-08-18T09:26:24.388Z,34.00
2018-08-18T09:31:27.492Z,34.50
2018-08-18T09:36:30.574Z,33.80
2018-08-18T09:41:33.581Z,33.30
2018-08-18T09:46:36.593Z,33.60
2018-08-18T09:51:39.652Z,33.80
2018-08-18T09:56:42.675Z,34.10
2018-08-18T10:01:45.683Z,34.10
2018-08-18T10:06:48.717Z,33.80
2018-08-18T10:11:52.255Z,33.80
2018-08-18T10:16:56.385Z,33.90
2018-08-18T10:22:00.708Z,33.90
2018-08-18T10:27:05.062Z,34.40
2018-08-18T10:32:08.113Z,34.80
2018-08-18T10:37:11.128Z,35.00
2018-08-18T10:42:16.145Z,34.80
2018-08-18T10:47:20.382Z,34.90
2018-08-18T10:52:35.677Z,34.70
2018-08-18T10:57:51.184Z,34.70
2018-08-18T11:02:55.523Z,34.80
2018-08-18T11:08:04.245Z,34.80
2018-08-18T11:13:07.329Z,35.00
2018-08-18T11:18:10.336Z,35.40
2018-08-18T11:23:14.291Z,35.70
2018-08-18T11:28:17.735Z,36.20
2018-08-18T11:33:36.344Z,36.60
2018-08-18T11:38:39.427Z,36.90
2018-08-18T11:43:48.074Z,37.00
2018-08-18T11:48:51.086Z,37.00
2018-08-18T11:53:59.720Z,37.10
2018-08-18T11:59:07.705Z,37.20
2018-08-18T12:04:10.785Z,37.50
2018-08-18T12:09:13.978Z,37.60
2018-08-18T12:14:17.061Z,37.80
2018-08-18T12:19:20.064Z,37.90
2018-08-18T12:24:23.284Z,37.80
2018-08-18T12:29:26.406Z,37.70
2018-08-18T12:34:29.297Z,37.40
2018-08-18T12:39:32.293Z,37.30
2018-08-18T12:44:35.305Z,37.20
2018-08-18T12:49:38.349Z,37.20
2018-08-18T12:54:41.309Z,37.10
2018-08-18T12:59:44.366Z,37.00
2018-08-18T13:04:47.377Z,37.00
2018-08-18T13:09:59.437Z,37.10
2018-08-18T13:15:02.450Z,36.90
2018-08-18T13:20:05.786Z,36.70
2018-08-18T13:25:08.797Z,36.70
2018-08-18T13:30:11.966Z,36.80
2018-08-18T13:35:15.065Z,36.80
2018-08-18T13:40:18.080Z,36.90
2018-08-18T13:45:31.806Z,36.90
2018-08-18T13:50:35.456Z,36.90
2018-08-18T13:55:40.622Z,37.00
2018-08-18T14:00:43.673Z,37.10
2018-08-18T14:05:46.687Z,37.90
2018-08-18T14:10:49.682Z,38.20
2018-08-18T14:15:57.698Z,38.10
2018-08-18T14:21:05.246Z,38.00
2018-08-18T14:26:08.361Z,37.60
2018-08-18T14:31:11.434Z,37.80
2018-08-18T14:36:15.461Z,37.40
2018-08-18T14:41:30.301Z,36.90
2018-08-18T14:46:33.434Z,36.40
2018-08-18T14:51:36.322Z,36.00
2018-08-18T14:56:39.330Z,35.50
2018-08-18T15:01:42.482Z,34.90
2018-08-18T15:06:45.486Z,34.50
2018-08-18T15:11:48.581Z,33.90
2018-08-18T15:16:51.895Z,33.10
2018-08-18T15:21:55.578Z,32.50
2018-08-18T15:26:58.625Z,32.00
2018-08-18T15:32:01.622Z,31.40
2018-08-18T15:37:04.696Z,31.00
2018-08-18T15:42:07.862Z,30.70
2018-08-18T15:47:10.992Z,30.40
2018-08-18T15:52:13.997Z,30.20
2018-08-18T15:57:17.018Z,30.00
2018-08-18T16:02:21.138Z,29.90
2018-08-18T16:07:24.254Z,29.70
2018-08-18T16:12:27.274Z,29.60
2018-08-18T16:17:30.266Z,29.40
2018-08-18T16:22:33.265Z,29.20
2018-08-18T16:27:36.269Z,29.10
2018-08-18T16:32:39.281Z,28.90
2018-08-18T16:37:44.545Z,28.80
2018-08-18T16:42:47.562Z,28.60
2018-08-18T16:47:53.076Z,28.50
2018-08-18T16:52:56.186Z,28.30
2018-08-18T16:57:59.264Z,28.10
2018-08-18T17:03:02.262Z,28.00
2018-08-18T17:08:05.247Z,27.90
2018-08-18T17:13:08.241Z,27.80
2018-08-18T17:18:11.295Z,27.70
2018-08-18T17:23:14.390Z,27.60
2018-08-18T17:28:17.397Z,27.50
2018-08-18T17:33:22.080Z,27.30
2018-08-18T17:38:25.249Z,27.20
2018-08-18T17:43:28.266Z,27.00
2018-08-18T17:48:38.019Z,26.80
2018-08-18T17:53:44.510Z,26.60
2018-08-18T17:58:47.504Z,26.30
2018-08-18T18:03:50.586Z,26.10
2018-08-18T18:08:53.841Z,25.90
2018-08-18T18:13:56.902Z,25.70
2018-08-18T18:18:59.998Z,25.50
2018-08-18T18:24:03.001Z,25.40
2018-08-18T18:29:06.117Z,25.20
2018-08-18T18:34:09.139Z,25.10
2018-08-18T18:39:12.160Z,24.90
2018-08-18T18:44:15.157Z,24.70
2018-08-18T18:49:29.522Z,24.60
2018-08-18T18:54:32.609Z,24.40
2018-08-18T18:59:39.463Z,24.20
2018-08-18T19:04:42.513Z,24.20
2018-08-18T19:09:45.575Z,24.00
2018-08-18T19:14:48.557Z,23.70
2018-08-18T19:20:01.830Z,23.60
2018-08-18T19:25:04.874Z,23.40
2018-08-18T19:30:07.882Z,23.30
2018-08-18T19:35:10.953Z,23.20
2018-08-18T19:40:14.065Z,23.10
2018-08-18T19:45:17.083Z,23.00
2018-08-18T19:50:20.096Z,22.90
2018-08-18T19:55:23.160Z,22.80
2018-08-18T20:00:26.178Z,22.70
2018-08-18T20:05:29.182Z,22.50
2018-08-18T20:10:35.562Z,22.40
2018-08-18T20:15:38.565Z,22.30
2018-08-18T20:20:41.585Z,22.10
2018-08-18T20:25:44.681Z,22.00
2018-08-18T20:30:47.693Z,21.80
2018-08-18T20:35:50.689Z,21.70
2018-08-18T20:40:53.730Z,21.70
2018-08-18T20:45:57.140Z,21.60
2018-08-18T20:51:00.169Z,21.50
2018-08-18T20:56:03.455Z,21.40
2018-08-18T21:01:06.532Z,21.30
2018-08-18T21:06:09.608Z,21.20
2018-08-18T21:11:12.678Z,21.20
2018-08-18T21:16:16.021Z,21.10
2018-08-18T21:21:27.841Z,21.10
2018-08-18T21:26:30.903Z,21.10
2018-08-18T21:31:35.046Z,21.00
2018-08-18T21:36:38.046Z,21.00
2018-08-18T21:41:42.434Z,21.00
2018-08-18T21:46:46.533Z,21.00
2018-08-18T21:51:49.597Z,20.90
2018-08-18T21:56:52.626Z,20.90
2018-08-18T22:01:58.954Z,20.80
2018-08-18T22:07:01.961Z,20.70
2018-08-18T22:12:04.983Z,20.50
2018-08-18T22:17:09.033Z,20.40
2018-08-18T22:22:16.347Z,20.30
2018-08-18T22:27:19.381Z,20.20
2018-08-18T22:32:23.822Z,20.20
2018-08-18T22:37:26.854Z,20.20
2018-08-18T22:42:29.865Z,20.20
2018-08-18T22:47:32.996Z,20.10
2018-08-18T22:52:36.062Z,20.00
2018-08-18T22:57:40.954Z,19.90
2018-08-18T23:02:44.257Z,19.80
2018-08-18T23:07:49.767Z,19.70
2018-08-18T23:12:52.982Z,19.50
2018-08-18T23:17:56.213Z,19.50
2018-08-18T23:23:00.355Z,19.40
2018-08-18T23:28:03.358Z,19.20
2018-08-18T23:33:07.739Z,19.20
2018-08-18T23:38:10.798Z,19.10
2018-08-18T23:43:13.833Z,19.00
2018-08-18T23:48:16.836Z,19.00
2018-08-18T23:53:19.911Z,18.80
2018-08-18T23:58:23.196Z,18.80
